sensor_id;sensor_type;location;lat;lon;timestamp;P1;durP1;ratioP1;P2;durP2;ratioP2
55090;SDS011;40985;53.180;5.800;2024-01-15T00:01:49;19.05;;;0.57;;
55090;SDS011;40985;53.180;5.800;2024-01-15T00:04:14;15.68;;;1.48;;
55090;SDS011;40985;53.180;5.800;2024-01-15T00:06:40;14.52;;;0.85;;
55090;SDS011;40985;53.180;5.800;2024-01-15T00:09:06;16.88;;;0.80;;
55090;SDS011;40985;53.180;5.800;2024-01-15T00:11:32;18.08;;;1.50;;
55090;SDS011;40985;53.180;5.800;2024-01-15T00:13:57;24.35;;;2.00;;
55090;SDS011;40985;53.180;5.800;2024-01-15T00:16:23;20.10;;;1.10;;
55090;SDS011;40985;53.180;5.800;2024-01-15T00:18:49;22.05;;;1.83;;
55090;SDS011;40985;53.180;5.800;2024-01-15T00:21:15;26.45;;;1.45;;
55090;SDS011;40985;53.180;5.800;2024-01-15T00:23:44;17.95;;;1.25;;
55090;SDS011;40985;53.180;5.800;2024-01-15T00:26:10;23.00;;;1.75;;
55090;SDS011;40985;53.180;5.800;2024-01-15T00:28:36;18.90;;;1.40;;
55090;SDS011;40985;53.180;5.800;2024-01-15T00:31:03;20.02;;;0.93;;
55090;SDS011;40985;53.180;5.800;2024-01-15T00:33:30;20.17;;;1.38;;
55090;SDS011;40985;53.180;5.800;2024-01-15T00:35:55;16.80;;;1.02;;
55090;SDS011;40985;53.180;5.800;2024-01-15T00:38:21;23.10;;;2.25;;
55090;SDS011;40985;53.180;5.800;2024-01-15T00:40:47;23.63;;;2.88;;
55090;SDS011;40985;53.180;5.800;2024-01-15T00:43:12;20.55;;;2.33;;
55090;SDS011;40985;53.180;5.800;2024-01-15T00:45:38;7.72;;;0.40;;
55090;SDS011;40985;53.180;5.800;2024-01-15T00:48:04;5.70;;;0.25;;
55090;SDS011;40985;53.180;5.800;2024-01-15T00:50:30;3.08;;;0.20;;
55090;SDS011;40985;53.180;5.800;2024-01-15T00:52:56;4.53;;;0.30;;
55090;SDS011;40985;53.180;5.800;2024-01-15T00:55:21;6.40;;;0.22;;
55090;SDS011;40985;53.180;5.800;2024-01-15T00:57:47;8.52;;;0.30;;
55090;SDS011;40985;53.180;5.800;2024-01-15T01:00:13;7.15;;;0.57;;
55090;SDS011;40985;53.180;5.800;2024-01-15T01:02:39;12.57;;;0.52;;
55090;SDS011;40985;53.180;5.800;2024-01-15T01:05:04;11.57;;;0.22;;
55090;SDS011;40985;53.180;5.800;2024-01-15T01:07:30;11.35;;;0.32;;
55090;SDS011;40985;53.180;5.800;2024-01-15T01:09:56;11.82;;;0.95;;
55090;SDS011;40985;53.180;5.800;2024-01-15T01:12:22;20.30;;;1.33;;
55090;SDS011;40985;53.180;5.800;2024-01-15T01:14:47;17.88;;;0.65;;
55090;SDS011;40985;53.180;5.800;2024-01-15T01:17:13;15.57;;;1.00;;
55090;SDS011;40985;53.180;5.800;2024-01-15T01:19:39;18.40;;;1.08;;
55090;SDS011;40985;53.180;5.800;2024-01-15T01:22:04;20.50;;;1.08;;
55090;SDS011;40985;53.180;5.800;2024-01-15T01:24:30;19.65;;;2.13;;
55090;SDS011;40985;53.180;5.800;2024-01-15T01:26:56;18.98;;;1.20;;
55090;SDS011;40985;53.180;5.800;2024-01-15T01:29:21;16.30;;;0.98;;
55090;SDS011;40985;53.180;5.800;2024-01-15T01:31:48;24.30;;;2.13;;
55090;SDS011;40985;53.180;5.800;2024-01-15T01:34:14;21.38;;;2.25;;
55090;SDS011;40985;53.180;5.800;2024-01-15T01:36:41;26.08;;;2.20;;
55090;SDS011;40985;53.180;5.800;2024-01-15T01:39:07;26.33;;;1.95;;
55090;SDS011;40985;53.180;5.800;2024-01-15T01:41:33;22.23;;;2.30;;
55090;SDS011;40985;53.180;5.800;2024-01-15T01:43:59;20.38;;;1.48;;
55090;SDS011;40985;53.180;5.800;2024-01-15T01:46:24;28.08;;;1.83;;
55090;SDS011;40985;53.180;5.800;2024-01-15T01:48:52;18.50;;;1.83;;
55090;SDS011;40985;53.180;5.800;2024-01-15T01:51:20;26.27;;;1.92;;
55090;SDS011;40985;53.180;5.800;2024-01-15T01:53:48;24.42;;;1.65;;
55090;SDS011;40985;53.180;5.800;2024-01-15T01:56:15;22.27;;;1.42;;
55090;SDS011;40985;53.180;5.800;2024-01-15T01:58:41;25.05;;;1.98;;
55090;SDS011;40985;53.180;5.800;2024-01-15T02:01:09;27.10;;;2.03;;
55090;SDS011;40985;53.180;5.800;2024-01-15T02:03:35;35.28;;;1.90;;
55090;SDS011;40985;53.180;5.800;2024-01-15T02:06:01;16.83;;;1.10;;
55090;SDS011;40985;53.180;5.800;2024-01-15T02:08:27;17.10;;;1.15;;
55090;SDS011;40985;53.180;5.800;2024-01-15T02:10:52;26.50;;;1.77;;
55090;SDS011;40985;53.180;5.800;2024-01-15T02:13:18;22.38;;;1.02;;
55090;SDS011;40985;53.180;5.800;2024-01-15T02:15:45;30.48;;;2.55;;
55090;SDS011;40985;53.180;5.800;2024-01-15T02:18:10;28.92;;;2.15;;
55090;SDS011;40985;53.180;5.800;2024-01-15T02:20:36;16.90;;;1.60;;
55090;SDS011;40985;53.180;5.800;2024-01-15T02:23:07;21.48;;;1.85;;
55090;SDS011;40985;53.180;5.800;2024-01-15T02:25:38;20.58;;;1.10;;
55090;SDS011;40985;53.180;5.800;2024-01-15T02:28:06;16.73;;;0.88;;
55090;SDS011;40985;53.180;5.800;2024-01-15T02:30:38;20.95;;;1.50;;
55090;SDS011;40985;53.180;5.800;2024-01-15T02:33:04;17.40;;;1.20;;
55090;SDS011;40985;53.180;5.800;2024-01-15T02:35:32;17.85;;;1.02;;
55090;SDS011;40985;53.180;5.800;2024-01-15T02:37:58;20.45;;;1.30;;
55090;SDS011;40985;53.180;5.800;2024-01-15T02:40:24;17.30;;;1.00;;
55090;SDS011;40985;53.180;5.800;2024-01-15T02:42:50;11.77;;;0.80;;
55090;SDS011;40985;53.180;5.800;2024-01-15T02:45:16;10.15;;;0.60;;
55090;SDS011;40985;53.180;5.800;2024-01-15T02:47:42;17.33;;;1.48;;
55090;SDS011;40985;53.180;5.800;2024-01-15T02:50:08;8.35;;;0.20;;
55090;SDS011;40985;53.180;5.800;2024-01-15T02:52:34;8.38;;;0.65;;
55090;SDS011;40985;53.180;5.800;2024-01-15T02:54:59;14.43;;;0.85;;
55090;SDS011;40985;53.180;5.800;2024-01-15T02:57:25;11.75;;;0.40;;
55090;SDS011;40985;53.180;5.800;2024-01-15T02:59:51;9.32;;;0.35;;
55090;SDS011;40985;53.180;5.800;2024-01-15T03:02:16;15.85;;;0.55;;
55090;SDS011;40985;53.180;5.800;2024-01-15T03:04:45;16.10;;;0.98;;
55090;SDS011;40985;53.180;5.800;2024-01-15T03:07:11;14.55;;;0.82;;
55090;SDS011;40985;53.180;5.800;2024-01-15T03:09:37;17.40;;;2.17;;
55090;SDS011;40985;53.180;5.800;2024-01-15T03:12:03;13.18;;;1.42;;
55090;SDS011;40985;53.180;5.800;2024-01-15T03:14:29;14.48;;;1.35;;
55090;SDS011;40985;53.180;5.800;2024-01-15T03:16:55;25.23;;;1.40;;
55090;SDS011;40985;53.180;5.800;2024-01-15T03:19:21;18.20;;;1.30;;
55090;SDS011;40985;53.180;5.800;2024-01-15T03:21:46;15.20;;;0.70;;
55090;SDS011;40985;53.180;5.800;2024-01-15T03:24:12;8.63;;;0.63;;
55090;SDS011;40985;53.180;5.800;2024-01-15T03:26:38;12.35;;;0.82;;
55090;SDS011;40985;53.180;5.800;2024-01-15T03:29:04;12.90;;;0.50;;
55090;SDS011;40985;53.180;5.800;2024-01-15T03:31:29;9.10;;;0.32;;
55090;SDS011;40985;53.180;5.800;2024-01-15T03:33:55;7.57;;;0.40;;
55090;SDS011;40985;53.180;5.800;2024-01-15T03:36:21;9.10;;;0.43;;
55090;SDS011;40985;53.180;5.800;2024-01-15T03:38:47;9.30;;;0.50;;
55090;SDS011;40985;53.180;5.800;2024-01-15T03:41:13;12.63;;;1.15;;
55090;SDS011;40985;53.180;5.800;2024-01-15T03:43:38;12.35;;;0.52;;
55090;SDS011;40985;53.180;5.800;2024-01-15T03:46:05;15.35;;;1.13;;
55090;SDS011;40985;53.180;5.800;2024-01-15T03:48:31;7.00;;;0.20;;
55090;SDS011;40985;53.180;5.800;2024-01-15T03:50:56;5.68;;;1.67;;
55090;SDS011;40985;53.180;5.800;2024-01-15T03:53:22;6.00;;;0.10;;
55090;SDS011;40985;53.180;5.800;2024-01-15T03:55:48;5.28;;;0.13;;
55090;SDS011;40985;53.180;5.800;2024-01-15T03:58:14;3.15;;;0.20;;
55090;SDS011;40985;53.180;5.800;2024-01-15T04:00:40;6.50;;;0.60;;
55090;SDS011;40985;53.180;5.800;2024-01-15T04:03:07;4.50;;;0.25;;
55090;SDS011;40985;53.180;5.800;2024-01-15T04:05:32;6.15;;;0.30;;
55090;SDS011;40985;53.180;5.800;2024-01-15T04:07:58;5.20;;;0.20;;
55090;SDS011;40985;53.180;5.800;2024-01-15T04:10:24;6.90;;;0.30;;
55090;SDS011;40985;53.180;5.800;2024-01-15T04:12:49;9.43;;;0.60;;
55090;SDS011;40985;53.180;5.800;2024-01-15T04:15:15;9.00;;;0.30;;
55090;SDS011;40985;53.180;5.800;2024-01-15T04:17:41;9.18;;;0.40;;
55090;SDS011;40985;53.180;5.800;2024-01-15T04:20:07;9.68;;;0.75;;
55090;SDS011;40985;53.180;5.800;2024-01-15T04:22:33;12.00;;;0.93;;
55090;SDS011;40985;53.180;5.800;2024-01-15T04:25:00;9.02;;;0.50;;
55090;SDS011;40985;53.180;5.800;2024-01-15T04:27:26;13.80;;;0.90;;
55090;SDS011;40985;53.180;5.800;2024-01-15T04:29:52;11.32;;;0.30;;
55090;SDS011;40985;53.180;5.800;2024-01-15T04:32:18;13.43;;;0.73;;
55090;SDS011;40985;53.180;5.800;2024-01-15T04:34:44;12.65;;;1.10;;
55090;SDS011;40985;53.180;5.800;2024-01-15T04:37:10;13.35;;;1.05;;
55090;SDS011;40985;53.180;5.800;2024-01-15T04:39:35;11.38;;;1.15;;
55090;SDS011;40985;53.180;5.800;2024-01-15T04:42:01;12.20;;;0.35;;
55090;SDS011;40985;53.180;5.800;2024-01-15T04:44:27;10.43;;;0.77;;
55090;SDS011;40985;53.180;5.800;2024-01-15T04:46:53;17.35;;;0.50;;
55090;SDS011;40985;53.180;5.800;2024-01-15T04:49:19;12.07;;;1.45;;
55090;SDS011;40985;53.180;5.800;2024-01-15T04:51:44;17.00;;;1.45;;
55090;SDS011;40985;53.180;5.800;2024-01-15T04:54:10;13.45;;;0.98;;
55090;SDS011;40985;53.180;5.800;2024-01-15T04:56:36;19.45;;;1.00;;
55090;SDS011;40985;53.180;5.800;2024-01-15T04:59:02;19.48;;;1.00;;
55090;SDS011;40985;53.180;5.800;2024-01-15T05:01:31;20.35;;;1.05;;
55090;SDS011;40985;53.180;5.800;2024-01-15T05:03:57;18.65;;;1.27;;
55090;SDS011;40985;53.180;5.800;2024-01-15T05:06:23;19.20;;;1.00;;
55090;SDS011;40985;53.180;5.800;2024-01-15T05:08:49;20.45;;;0.75;;
55090;SDS011;40985;53.180;5.800;2024-01-15T05:11:15;18.63;;;1.67;;
55090;SDS011;40985;53.180;5.800;2024-01-15T05:13:41;19.92;;;1.48;;
55090;SDS011;40985;53.180;5.800;2024-01-15T05:16:06;17.08;;;1.20;;
55090;SDS011;40985;53.180;5.800;2024-01-15T05:18:32;21.55;;;1.52;;
55090;SDS011;40985;53.180;5.800;2024-01-15T05:20:58;16.65;;;1.17;;
55090;SDS011;40985;53.180;5.800;2024-01-15T05:23:24;23.15;;;1.27;;
55090;SDS011;40985;53.180;5.800;2024-01-15T05:25:49;26.60;;;1.50;;
55090;SDS011;40985;53.180;5.800;2024-01-15T05:28:15;26.48;;;1.75;;
55090;SDS011;40985;53.180;5.800;2024-01-15T05:30:41;20.38;;;1.45;;
55090;SDS011;40985;53.180;5.800;2024-01-15T05:33:07;23.40;;;2.00;;
55090;SDS011;40985;53.180;5.800;2024-01-15T05:35:33;24.33;;;1.50;;
55090;SDS011;40985;53.180;5.800;2024-01-15T05:37:59;19.58;;;2.22;;
55090;SDS011;40985;53.180;5.800;2024-01-15T05:40:25;22.83;;;0.95;;
55090;SDS011;40985;53.180;5.800;2024-01-15T05:42:50;23.55;;;2.53;;
55090;SDS011;40985;53.180;5.800;2024-01-15T05:45:16;26.17;;;1.65;;
55090;SDS011;40985;53.180;5.800;2024-01-15T05:47:42;22.38;;;1.50;;
55090;SDS011;40985;53.180;5.800;2024-01-15T05:50:09;21.10;;;1.58;;
55090;SDS011;40985;53.180;5.800;2024-01-15T05:52:35;18.90;;;1.15;;
55090;SDS011;40985;53.180;5.800;2024-01-15T05:55:01;17.40;;;1.17;;
55090;SDS011;40985;53.180;5.800;2024-01-15T05:57:27;21.10;;;1.40;;
55090;SDS011;40985;53.180;5.800;2024-01-15T05:59:53;11.70;;;0.52;;
55090;SDS011;40985;53.180;5.800;2024-01-15T06:02:19;20.17;;;1.30;;
55090;SDS011;40985;53.180;5.800;2024-01-15T06:04:44;16.52;;;1.17;;
55090;SDS011;40985;53.180;5.800;2024-01-15T06:07:10;15.73;;;0.93;;
55090;SDS011;40985;53.180;5.800;2024-01-15T06:09:36;9.65;;;0.65;;
55090;SDS011;40985;53.180;5.800;2024-01-15T06:12:03;11.15;;;0.70;;
55090;SDS011;40985;53.180;5.800;2024-01-15T06:14:29;7.50;;;0.50;;
55090;SDS011;40985;53.180;5.800;2024-01-15T06:16:55;8.52;;;0.55;;
55090;SDS011;40985;53.180;5.800;2024-01-15T06:19:21;9.68;;;0.30;;
55090;SDS011;40985;53.180;5.800;2024-01-15T06:21:46;9.23;;;0.47;;
55090;SDS011;40985;53.180;5.800;2024-01-15T06:24:12;9.50;;;0.50;;
55090;SDS011;40985;53.180;5.800;2024-01-15T06:26:38;5.78;;;0.30;;
55090;SDS011;40985;53.180;5.800;2024-01-15T06:29:04;10.93;;;1.40;;
55090;SDS011;40985;53.180;5.800;2024-01-15T06:31:30;10.88;;;0.80;;
55090;SDS011;40985;53.180;5.800;2024-01-15T06:33:56;9.73;;;0.88;;
55090;SDS011;40985;53.180;5.800;2024-01-15T06:36:21;13.45;;;0.65;;
55090;SDS011;40985;53.180;5.800;2024-01-15T06:38:47;13.82;;;0.68;;
55090;SDS011;40985;53.180;5.800;2024-01-15T06:41:12;12.70;;;0.70;;
55090;SDS011;40985;53.180;5.800;2024-01-15T06:43:38;18.67;;;0.70;;
55090;SDS011;40985;53.180;5.800;2024-01-15T06:46:04;14.57;;;0.50;;
55090;SDS011;40985;53.180;5.800;2024-01-15T06:48:30;9.38;;;0.70;;
55090;SDS011;40985;53.180;5.800;2024-01-15T06:50:56;12.18;;;0.90;;
55090;SDS011;40985;53.180;5.800;2024-01-15T06:53:21;14.75;;;0.80;;
55090;SDS011;40985;53.180;5.800;2024-01-15T06:55:47;14.70;;;0.50;;
55090;SDS011;40985;53.180;5.800;2024-01-15T06:58:14;22.48;;;3.78;;
55090;SDS011;40985;53.180;5.800;2024-01-15T07:00:40;14.55;;;0.88;;
55090;SDS011;40985;53.180;5.800;2024-01-15T07:03:05;14.43;;;0.75;;
55090;SDS011;40985;53.180;5.800;2024-01-15T07:05:32;13.13;;;0.88;;
55090;SDS011;40985;53.180;5.800;2024-01-15T07:07:58;15.07;;;0.80;;
55090;SDS011;40985;53.180;5.800;2024-01-15T07:10:23;18.83;;;0.80;;
55090;SDS011;40985;53.180;5.800;2024-01-15T07:12:49;11.77;;;0.85;;
55090;SDS011;40985;53.180;5.800;2024-01-15T07:15:15;14.25;;;1.15;;
55090;SDS011;40985;53.180;5.800;2024-01-15T07:17:41;13.60;;;1.10;;
55090;SDS011;40985;53.180;5.800;2024-01-15T07:20:08;12.50;;;0.73;;
55090;SDS011;40985;53.180;5.800;2024-01-15T07:22:35;14.40;;;0.75;;
55090;SDS011;40985;53.180;5.800;2024-01-15T07:25:01;14.60;;;1.70;;
55090;SDS011;40985;53.180;5.800;2024-01-15T07:27:27;26.55;;;1.95;;
55090;SDS011;40985;53.180;5.800;2024-01-15T07:29:52;17.08;;;0.52;;
55090;SDS011;40985;53.180;5.800;2024-01-15T07:32:18;12.63;;;0.75;;
55090;SDS011;40985;53.180;5.800;2024-01-15T07:34:45;13.13;;;0.60;;
55090;SDS011;40985;53.180;5.800;2024-01-15T07:37:11;29.75;;;2.50;;
55090;SDS011;40985;53.180;5.800;2024-01-15T07:39:37;7.80;;;0.80;;
55090;SDS011;40985;53.180;5.800;2024-01-15T07:42:03;6.38;;;0.20;;
55090;SDS011;40985;53.180;5.800;2024-01-15T07:44:29;2.88;;;0.10;;
55090;SDS011;40985;53.180;5.800;2024-01-15T07:46:54;8.25;;;0.20;;
55090;SDS011;40985;53.180;5.800;2024-01-15T07:49:20;4.63;;;0.20;;
55090;SDS011;40985;53.180;5.800;2024-01-15T07:51:46;7.00;;;0.20;;
55090;SDS011;40985;53.180;5.800;2024-01-15T07:54:11;3.67;;;0.50;;
55090;SDS011;40985;53.180;5.800;2024-01-15T07:56:53;6.57;;;0.20;;
55090;SDS011;40985;53.180;5.800;2024-01-15T07:59:22;4.95;;;0.10;;
55090;SDS011;40985;53.180;5.800;2024-01-15T08:01:49;4.93;;;0.10;;
55090;SDS011;40985;53.180;5.800;2024-01-15T08:04:15;4.13;;;0.20;;
55090;SDS011;40985;53.180;5.800;2024-01-15T08:06:41;2.90;;;0.17;;
55090;SDS011;40985;53.180;5.800;2024-01-15T08:09:06;3.42;;;0.10;;
55090;SDS011;40985;53.180;5.800;2024-01-15T08:11:33;6.57;;;0.40;;
55090;SDS011;40985;53.180;5.800;2024-01-15T08:13:59;8.77;;;0.20;;
55090;SDS011;40985;53.180;5.800;2024-01-15T08:16:25;5.60;;;0.10;;
55090;SDS011;40985;53.180;5.800;2024-01-15T08:18:52;5.05;;;0.20;;
55090;SDS011;40985;53.180;5.800;2024-01-15T08:21:21;6.38;;;0.20;;
55090;SDS011;40985;53.180;5.800;2024-01-15T08:23:47;9.63;;;0.47;;
55090;SDS011;40985;53.180;5.800;2024-01-15T08:26:13;10.68;;;0.75;;
55090;SDS011;40985;53.180;5.800;2024-01-15T08:28:38;18.13;;;0.60;;
55090;SDS011;40985;53.180;5.800;2024-01-15T08:31:04;8.93;;;0.30;;
55090;SDS011;40985;53.180;5.800;2024-01-15T08:33:30;9.50;;;0.35;;
55090;SDS011;40985;53.180;5.800;2024-01-15T08:35:55;11.52;;;0.60;;
55090;SDS011;40985;53.180;5.800;2024-01-15T08:38:21;9.10;;;0.40;;
55090;SDS011;40985;53.180;5.800;2024-01-15T08:40:47;12.27;;;0.32;;
55090;SDS011;40985;53.180;5.800;2024-01-15T08:43:14;6.35;;;0.30;;
55090;SDS011;40985;53.180;5.800;2024-01-15T08:45:40;6.32;;;0.52;;
55090;SDS011;40985;53.180;5.800;2024-01-15T08:48:05;8.30;;;0.20;;
55090;SDS011;40985;53.180;5.800;2024-01-15T08:50:32;10.27;;;0.32;;
55090;SDS011;40985;53.180;5.800;2024-01-15T08:52:58;12.25;;;0.40;;
55090;SDS011;40985;53.180;5.800;2024-01-15T08:55:24;9.35;;;0.60;;
55090;SDS011;40985;53.180;5.800;2024-01-15T08:57:50;12.68;;;1.77;;
55090;SDS011;40985;53.180;5.800;2024-01-15T09:00:15;13.70;;;0.47;;
55090;SDS011;40985;53.180;5.800;2024-01-15T09:02:42;11.60;;;0.52;;
55090;SDS011;40985;53.180;5.800;2024-01-15T09:05:08;13.07;;;0.80;;
55090;SDS011;40985;53.180;5.800;2024-01-15T09:07:34;8.85;;;0.38;;
55090;SDS011;40985;53.180;5.800;2024-01-15T09:10:00;16.15;;;1.63;;
55090;SDS011;40985;53.180;5.800;2024-01-15T09:12:27;12.27;;;0.50;;
55090;SDS011;40985;53.180;5.800;2024-01-15T09:14:53;14.70;;;0.50;;
55090;SDS011;40985;53.180;5.800;2024-01-15T09:17:19;14.35;;;0.93;;
55090;SDS011;40985;53.180;5.800;2024-01-15T09:19:46;11.65;;;0.55;;
55090;SDS011;40985;53.180;5.800;2024-01-15T09:22:12;9.05;;;0.35;;
55090;SDS011;40985;53.180;5.800;2024-01-15T09:24:42;13.55;;;0.60;;
55090;SDS011;40985;53.180;5.800;2024-01-15T09:27:08;6.25;;;0.38;;
55090;SDS011;40985;53.180;5.800;2024-01-15T09:29:33;7.25;;;0.40;;
55090;SDS011;40985;53.180;5.800;2024-01-15T09:32:01;3.28;;;0.20;;
55090;SDS011;40985;53.180;5.800;2024-01-15T09:34:29;13.80;;;0.50;;
55090;SDS011;40985;53.180;5.800;2024-01-15T09:36:55;6.70;;;0.30;;
55090;SDS011;40985;53.180;5.800;2024-01-15T09:39:20;6.10;;;0.40;;
55090;SDS011;40985;53.180;5.800;2024-01-15T09:41:48;4.82;;;0.20;;
55090;SDS011;40985;53.180;5.800;2024-01-15T09:44:15;8.88;;;0.40;;
55090;SDS011;40985;53.180;5.800;2024-01-15T09:46:42;5.72;;;0.30;;
55090;SDS011;40985;53.180;5.800;2024-01-15T09:49:09;3.97;;;0.40;;
55090;SDS011;40985;53.180;5.800;2024-01-15T09:51:36;5.45;;;0.20;;
55090;SDS011;40985;53.180;5.800;2024-01-15T09:54:02;7.63;;;0.22;;
55090;SDS011;40985;53.180;5.800;2024-01-15T09:56:29;8.98;;;0.22;;
55090;SDS011;40985;53.180;5.800;2024-01-15T09:58:56;7.15;;;0.52;;
55090;SDS011;40985;53.180;5.800;2024-01-15T10:01:23;6.82;;;0.30;;
55090;SDS011;40985;53.180;5.800;2024-01-15T10:03:50;9.35;;;0.80;;
55090;SDS011;40985;53.180;5.800;2024-01-15T10:06:16;5.30;;;0.30;;
55090;SDS011;40985;53.180;5.800;2024-01-15T10:08:43;3.58;;;0.20;;
55090;SDS011;40985;53.180;5.800;2024-01-15T10:11:12;3.65;;;0.20;;
55090;SDS011;40985;53.180;5.800;2024-01-15T10:13:38;5.85;;;0.10;;
55090;SDS011;40985;53.180;5.800;2024-01-15T10:16:04;1.35;;;0.10;;
55090;SDS011;40985;53.180;5.800;2024-01-15T10:18:31;4.05;;;0.00;;
55090;SDS011;40985;53.180;5.800;2024-01-15T10:20:57;1.88;;;0.00;;
55090;SDS011;40985;53.180;5.800;2024-01-15T10:23:23;2.08;;;0.03;;
55090;SDS011;40985;53.180;5.800;2024-01-15T10:25:49;3.65;;;0.30;;
55090;SDS011;40985;53.180;5.800;2024-01-15T10:28:16;5.93;;;0.20;;
55090;SDS011;40985;53.180;5.800;2024-01-15T10:30:44;3.25;;;0.17;;
55090;SDS011;40985;53.180;5.800;2024-01-15T10:33:10;6.13;;;0.20;;
55090;SDS011;40985;53.180;5.800;2024-01-15T10:35:37;7.22;;;0.28;;
55090;SDS011;40985;53.180;5.800;2024-01-15T10:38:03;10.02;;;0.20;;
55090;SDS011;40985;53.180;5.800;2024-01-15T10:40:31;6.88;;;0.82;;
55090;SDS011;40985;53.180;5.800;2024-01-15T10:42:57;9.43;;;0.40;;
55090;SDS011;40985;53.180;5.800;2024-01-15T10:45:23;19.10;;;0.80;;
55090;SDS011;40985;53.180;5.800;2024-01-15T10:47:49;12.93;;;0.88;;
55090;SDS011;40985;53.180;5.800;2024-01-15T10:50:14;13.60;;;0.80;;
55090;SDS011;40985;53.180;5.800;2024-01-15T10:52:41;5.38;;;0.32;;
55090;SDS011;40985;53.180;5.800;2024-01-15T10:55:08;12.00;;;0.57;;
55090;SDS011;40985;53.180;5.800;2024-01-15T10:57:35;5.88;;;0.82;;
55090;SDS011;40985;53.180;5.800;2024-01-15T11:00:02;3.67;;;0.20;;
55090;SDS011;40985;53.180;5.800;2024-01-15T11:02:31;5.93;;;1.00;;
55090;SDS011;40985;53.180;5.800;2024-01-15T11:04:59;6.70;;;0.20;;
55090;SDS011;40985;53.180;5.800;2024-01-15T11:07:26;4.35;;;0.40;;
55090;SDS011;40985;53.180;5.800;2024-01-15T11:09:52;8.55;;;0.65;;
55090;SDS011;40985;53.180;5.800;2024-01-15T11:12:18;6.38;;;0.47;;
55090;SDS011;40985;53.180;5.800;2024-01-15T11:14:48;13.98;;;1.10;;
55090;SDS011;40985;53.180;5.800;2024-01-15T11:17:15;13.63;;;0.70;;
55090;SDS011;40985;53.180;5.800;2024-01-15T11:19:42;16.35;;;1.50;;
55090;SDS011;40985;53.180;5.800;2024-01-15T11:22:10;11.05;;;0.50;;
55090;SDS011;40985;53.180;5.800;2024-01-15T11:25:17;7.22;;;0.30;;
55090;SDS011;40985;53.180;5.800;2024-01-15T11:27:46;10.77;;;1.38;;
55090;SDS011;40985;53.180;5.800;2024-01-15T11:30:12;6.07;;;0.30;;
55090;SDS011;40985;53.180;5.800;2024-01-15T11:32:39;9.32;;;1.02;;
55090;SDS011;40985;53.180;5.800;2024-01-15T11:35:11;4.45;;;0.20;;
55090;SDS011;40985;53.180;5.800;2024-01-15T11:40:19;8.07;;;0.20;;
55090;SDS011;40985;53.180;5.800;2024-01-15T11:42:46;8.73;;;0.25;;
55090;SDS011;40985;53.180;5.800;2024-01-15T11:45:13;7.00;;;0.22;;
55090;SDS011;40985;53.180;5.800;2024-01-15T11:47:58;14.27;;;0.30;;
55090;SDS011;40985;53.180;5.800;2024-01-15T11:50:29;7.28;;;0.47;;
55090;SDS011;40985;53.180;5.800;2024-01-15T11:52:59;8.13;;;0.88;;
55090;SDS011;40985;53.180;5.800;2024-01-15T11:55:27;19.13;;;1.00;;
55090;SDS011;40985;53.180;5.800;2024-01-15T11:58:10;6.85;;;0.60;;
55090;SDS011;40985;53.180;5.800;2024-01-15T12:00:47;15.73;;;0.65;;
55090;SDS011;40985;53.180;5.800;2024-01-15T12:03:16;12.60;;;1.25;;
55090;SDS011;40985;53.180;5.800;2024-01-15T12:05:42;15.15;;;0.60;;
55090;SDS011;40985;53.180;5.800;2024-01-15T12:08:08;6.70;;;0.50;;
55090;SDS011;40985;53.180;5.800;2024-01-15T12:10:36;9.38;;;0.50;;
55090;SDS011;40985;53.180;5.800;2024-01-15T12:13:10;8.82;;;0.68;;
55090;SDS011;40985;53.180;5.800;2024-01-15T12:15:41;4.43;;;0.30;;
55090;SDS011;40985;53.180;5.800;2024-01-15T12:18:12;6.63;;;0.70;;
55090;SDS011;40985;53.180;5.800;2024-01-15T12:20:43;5.03;;;0.30;;
55090;SDS011;40985;53.180;5.800;2024-01-15T12:23:09;5.47;;;0.20;;
55090;SDS011;40985;53.180;5.800;2024-01-15T12:25:36;7.85;;;0.40;;
55090;SDS011;40985;53.180;5.800;2024-01-15T12:28:02;9.68;;;0.47;;
55090;SDS011;40985;53.180;5.800;2024-01-15T12:30:29;8.98;;;0.57;;
55090;SDS011;40985;53.180;5.800;2024-01-15T12:32:58;8.38;;;0.40;;
55090;SDS011;40985;53.180;5.800;2024-01-15T12:35:28;8.50;;;0.52;;
55090;SDS011;40985;53.180;5.800;2024-01-15T12:37:55;6.57;;;0.40;;
55090;SDS011;40985;53.180;5.800;2024-01-15T12:40:21;12.15;;;1.33;;
55090;SDS011;40985;53.180;5.800;2024-01-15T12:42:48;10.15;;;0.68;;
55090;SDS011;40985;53.180;5.800;2024-01-15T12:45:14;18.15;;;1.45;;
55090;SDS011;40985;53.180;5.800;2024-01-15T12:47:40;12.77;;;0.50;;
55090;SDS011;40985;53.180;5.800;2024-01-15T12:50:07;22.85;;;1.23;;
55090;SDS011;40985;53.180;5.800;2024-01-15T12:52:34;10.32;;;0.95;;
55090;SDS011;40985;53.180;5.800;2024-01-15T12:55:02;13.75;;;1.38;;
55090;SDS011;40985;53.180;5.800;2024-01-15T12:57:32;15.43;;;1.13;;
55090;SDS011;40985;53.180;5.800;2024-01-15T12:59:59;12.48;;;0.65;;
55090;SDS011;40985;53.180;5.800;2024-01-15T13:02:25;10.90;;;1.20;;
55090;SDS011;40985;53.180;5.800;2024-01-15T13:04:50;13.25;;;1.15;;
55090;SDS011;40985;53.180;5.800;2024-01-15T13:07:17;18.98;;;0.98;;
55090;SDS011;40985;53.180;5.800;2024-01-15T13:09:43;11.48;;;1.02;;
55090;SDS011;40985;53.180;5.800;2024-01-15T13:12:08;17.30;;;0.80;;
55090;SDS011;40985;53.180;5.800;2024-01-15T13:14:34;21.73;;;1.10;;
55090;SDS011;40985;53.180;5.800;2024-01-15T13:17:01;11.65;;;0.73;;
55090;SDS011;40985;53.180;5.800;2024-01-15T13:19:28;23.20;;;1.50;;
55090;SDS011;40985;53.180;5.800;2024-01-15T13:21:54;16.73;;;1.00;;
55090;SDS011;40985;53.180;5.800;2024-01-15T13:24:23;15.38;;;1.73;;
55090;SDS011;40985;53.180;5.800;2024-01-15T13:26:49;17.15;;;1.17;;
55090;SDS011;40985;53.180;5.800;2024-01-15T13:29:14;15.10;;;1.60;;
55090;SDS011;40985;53.180;5.800;2024-01-15T13:31:40;17.05;;;1.45;;
55090;SDS011;40985;53.180;5.800;2024-01-15T13:34:06;13.15;;;0.95;;
55090;SDS011;40985;53.180;5.800;2024-01-15T13:36:32;2.08;;;0.17;;
55090;SDS011;40985;53.180;5.800;2024-01-15T13:38:58;4.03;;;0.28;;
55090;SDS011;40985;53.180;5.800;2024-01-15T13:41:24;3.65;;;0.10;;
55090;SDS011;40985;53.180;5.800;2024-01-15T13:43:52;4.13;;;0.20;;
55090;SDS011;40985;53.180;5.800;2024-01-15T13:46:19;6.88;;;0.30;;
55090;SDS011;40985;53.180;5.800;2024-01-15T13:48:45;8.25;;;0.40;;
55090;SDS011;40985;53.180;5.800;2024-01-15T13:51:11;12.15;;;0.52;;
55090;SDS011;40985;53.180;5.800;2024-01-15T13:53:40;8.95;;;0.50;;
55090;SDS011;40985;53.180;5.800;2024-01-15T13:56:06;11.93;;;0.90;;
55090;SDS011;40985;53.180;5.800;2024-01-15T13:58:33;11.07;;;0.73;;
55090;SDS011;40985;53.180;5.800;2024-01-15T14:00:59;19.50;;;1.40;;
55090;SDS011;40985;53.180;5.800;2024-01-15T14:03:25;13.45;;;1.35;;
55090;SDS011;40985;53.180;5.800;2024-01-15T14:05:51;11.55;;;0.77;;
55090;SDS011;40985;53.180;5.800;2024-01-15T14:08:17;11.68;;;0.80;;
55090;SDS011;40985;53.180;5.800;2024-01-15T14:10:43;10.40;;;0.85;;
55090;SDS011;40985;53.180;5.800;2024-01-15T14:13:10;14.30;;;1.13;;
55090;SDS011;40985;53.180;5.800;2024-01-15T14:15:35;12.05;;;0.70;;
55090;SDS011;40985;53.180;5.800;2024-01-15T14:18:02;12.80;;;0.88;;
55090;SDS011;40985;53.180;5.800;2024-01-15T14:20:28;7.82;;;0.20;;
55090;SDS011;40985;53.180;5.800;2024-01-15T14:22:54;7.47;;;0.38;;
55090;SDS011;40985;53.180;5.800;2024-01-15T14:25:20;3.05;;;0.40;;
55090;SDS011;40985;53.180;5.800;2024-01-15T14:27:46;4.07;;;0.10;;
55090;SDS011;40985;53.180;5.800;2024-01-15T14:30:12;1.05;;;0.00;;
55090;SDS011;40985;53.180;5.800;2024-01-15T14:32:39;2.35;;;0.00;;
55090;SDS011;40985;53.180;5.800;2024-01-15T14:35:06;2.95;;;0.05;;
55090;SDS011;40985;53.180;5.800;2024-01-15T14:37:35;2.53;;;0.10;;
55090;SDS011;40985;53.180;5.800;2024-01-15T14:40:07;0.95;;;0.00;;